createdAt,value
2022-11-26T08:17:13.314Z,3.13
2022-11-26T08:18:17.123Z,3.02
2022-11-26T08:19:20.092Z,3.12
2022-11-26T08:20:28.883Z,3.21
2022-11-26T08:21:31.196Z,3.21
2022-11-26T08:22:34.961Z,3.25
2022-11-26T08:23:39.161Z,3.29
2022-11-26T08:24:43.752Z,3.26
2022-11-26T08:26:14.010Z,3.26
2022-11-26T08:26:53.069Z,3.15
2022-11-26T08:27:56.413Z,3.15
2022-11-26T08:28:59.890Z,3.11
2022-11-26T08:30:07.767Z,3.10
2022-11-26T08:31:14.286Z,3.15
2022-11-26T08:32:19.153Z,3.14
2022-11-26T08:33:23.254Z,3.20
2022-11-26T08:34:25.951Z,3.18
2022-11-26T08:35:51.527Z,3.22
2022-11-26T08:36:35.806Z,3.10
2022-11-26T08:37:42.555Z,3.21
2022-11-26T08:38:45.604Z,3.20
2022-11-26T08:39:47.873Z,3.22
2022-11-26T08:40:51.478Z,3.29
2022-11-26T08:41:55.864Z,3.27
2022-11-26T08:42:58.916Z,3.11
2022-11-26T08:44:06.567Z,3.13
2022-11-26T08:45:10.412Z,3.12
2022-11-26T08:46:14.257Z,3.11
2022-11-26T08:47:18.074Z,3.23
2022-11-26T08:48:22.827Z,3.09
2022-11-26T08:49:26.505Z,3.13
2022-11-26T08:50:34.023Z,3.26
2022-11-26T08:51:37.602Z,3.13
2022-11-26T08:52:44.310Z,3.16
2022-11-26T08:53:47.926Z,3.28
2022-11-26T08:54:52.237Z,3.44
2022-11-26T08:56:03.522Z,3.50
2022-11-26T08:57:06.836Z,3.35
2022-11-26T08:58:11.406Z,3.38
2022-11-26T08:59:14.847Z,3.26
2022-11-26T09:00:19.392Z,3.26
2022-11-26T09:01:25.481Z,3.36
2022-11-26T09:02:29.093Z,3.47
2022-11-26T09:03:34.258Z,3.47
2022-11-26T09:04:39.128Z,3.41
2022-11-26T09:05:42.747Z,3.48
2022-11-26T09:06:47.391Z,3.53
2022-11-26T09:07:50.728Z,3.58
2022-11-26T09:09:12.956Z,3.69
2022-11-26T09:10:16.023Z,3.54
2022-11-26T09:11:22.492Z,3.42
2022-11-26T09:12:26.091Z,3.52
2022-11-26T09:13:28.781Z,3.56
2022-11-26T09:14:42.188Z,3.56
2022-11-26T09:15:44.777Z,3.43
2022-11-26T09:16:48.318Z,3.38
2022-11-26T09:17:52.874Z,3.35
2022-11-26T09:18:56.376Z,3.30
2022-11-26T09:19:58.744Z,3.30
2022-11-26T09:21:05.970Z,3.40
2022-11-26T09:22:09.702Z,3.51
2022-11-26T09:23:13.294Z,3.47
2022-11-26T09:24:18.289Z,3.39
2022-11-26T09:25:21.148Z,3.17
2022-11-26T09:26:24.809Z,3.04
2022-11-26T09:27:28.476Z,2.97
2022-11-26T09:28:32.174Z,3.13
2022-11-26T09:29:35.167Z,3.23
2022-11-26T09:30:37.898Z,3.32
2022-11-26T09:32:15.599Z,3.38
2022-11-26T09:32:51.584Z,3.28
2022-11-26T09:34:00.181Z,3.33
2022-11-26T09:35:03.894Z,3.22
2022-11-26T09:36:11.648Z,3.15
2022-11-26T09:37:15.150Z,3.27
2022-11-26T09:38:25.242Z,3.36
2022-11-26T09:39:28.296Z,3.41
2022-11-26T09:41:58.418Z,3.42
2022-11-26T09:43:16.078Z,3.17
2022-11-26T09:44:23.391Z,3.09
2022-11-26T09:45:42.849Z,3.14
2022-11-26T09:47:11.034Z,3.18
2022-11-26T09:47:59.185Z,3.04
2022-11-26T09:49:05.560Z,3.11
2022-11-26T09:50:15.233Z,3.17
2022-11-26T09:51:21.025Z,3.28
2022-11-26T09:52:28.069Z,3.25
2022-11-26T09:53:38.118Z,3.23
2022-11-26T09:54:42.182Z,3.30
2022-11-26T09:55:54.551Z,3.35
2022-11-26T09:57:18.065Z,3.24
2022-11-26T09:58:43.229Z,3.08
2022-11-26T09:59:50.815Z,3.02
2022-11-26T10:00:57.569Z,3.13
2022-11-26T10:02:02.150Z,3.03
2022-11-26T10:03:14.407Z,2.94
2022-11-26T10:04:28.632Z,2.96
2022-11-26T10:05:54.393Z,2.97
2022-11-26T10:08:38.944Z,3.16
2022-11-26T10:09:55.133Z,3.12
2022-11-26T10:11:05.048Z,3.18
2022-11-26T10:12:27.368Z,3.28
2022-11-26T10:13:51.155Z,3.06
2022-11-26T10:15:13.554Z,2.97
2022-11-26T10:16:35.925Z,2.98
2022-11-26T10:17:52.045Z,3.12
2022-11-26T10:20:20.313Z,3.28
2022-11-26T10:21:58.701Z,3.26
2022-11-26T10:23:00.626Z,3.22
2022-11-26T10:24:29.529Z,3.23
2022-11-26T10:25:36.931Z,3.21
2022-11-26T10:26:41.300Z,3.37
2022-11-26T10:27:45.947Z,3.42
2022-11-26T10:28:53.146Z,3.50
2022-11-26T10:30:14.711Z,3.49
2022-11-26T10:31:24.798Z,3.40
2022-11-26T10:32:37.986Z,3.50
2022-11-26T10:33:47.723Z,3.40
2022-11-26T10:35:00.938Z,3.36
2022-11-26T10:36:10.613Z,3.56
2022-11-26T10:37:15.055Z,3.54
2022-11-26T10:38:18.517Z,3.30
2022-11-26T10:39:21.301Z,3.21
2022-11-26T10:40:27.968Z,3.20
2022-11-26T10:41:40.185Z,3.29
2022-11-26T10:42:47.704Z,3.32
2022-11-26T10:45:18.052Z,3.58
2022-11-26T10:47:45.381Z,3.61
2022-11-26T10:48:49.125Z,3.45
2022-11-26T10:49:58.110Z,3.57
2022-11-26T10:51:06.471Z,3.48
2022-11-26T10:52:10.774Z,3.40
2022-11-26T10:53:23.254Z,3.25
2022-11-26T10:55:44.388Z,3.09
2022-11-26T10:56:52.518Z,3.23
2022-11-26T10:58:07.290Z,3.24
2022-11-26T10:59:30.629Z,3.17
2022-11-26T11:00:50.721Z,3.26
2022-11-26T11:01:57.811Z,3.36
2022-11-26T11:03:03.915Z,3.21
2022-11-26T11:04:30.691Z,3.11
2022-11-26T11:05:34.630Z,3.21
2022-11-26T11:06:44.423Z,3.12
2022-11-26T11:07:48.317Z,3.09
2022-11-26T11:08:58.274Z,3.22
2022-11-26T11:11:26.368Z,3.41
2022-11-26T11:12:31.162Z,3.17
2022-11-26T11:13:48.426Z,3.16
2022-11-26T11:14:53.967Z,3.24
2022-11-26T11:16:02.833Z,3.32
2022-11-26T11:17:07.743Z,3.32
2022-11-26T11:18:20.944Z,3.40
